KCMH/CMH METAR and TAF weather

Enter ICAO airport designator
Station Type Date Time Source
KCMH METAR 2019/07/15 19:51 UTC NOAA

KCMH 151951Z VRB05KT 10SM SCT060 SCT080 BKN100 33/19 A3006 RMK AO2 SLP170 T03330194


Station Type Date Time Source
KCMH Decoded METAR 2019/07/15 19:51 UTC NOAA

PORT COLUMBUS INTERNATIONAL AIRPORT, OH, United States (KCMH) 40-00N 82-53W 247M
Jul 15, 2019 - 03:51 PM EDT / 2019.07.15 1951 UTC
Wind: Variable at 6 MPH (5 KT):0
Visibility: 10 mile(s):0
Sky conditions: mostly cloudy
Temperature: 91.9 F (33.3 C)
Heat index: 95.4 F (35.2 C):1
Dew Point: 66.9 F (19.4 C)
Relative Humidity: 44%
Pressure (altimeter): 30.06 in. Hg (1017 hPa)
ob: KCMH 151951Z VRB05KT 10SM SCT060 SCT080 BKN100 33/19 A3006 RMK AO2 SLP170 T03330194
cycle: 20

Station Type Date Time Source
KCMH TAF 2019/07/15 18:39 UTC NOAA

TAF KCMH 151737Z 1518/1618 VRB03KT P6SM SCT050
FM152000 22005KT P6SM VCTS BKN050CB
FM160000 23004KT P6SM SCT050 BKN120
FM160500 00000KT P6SM BKN100
FM161300 17004KT P6SM BKN070
FM161700 19008KT P6SM BKN040

Example: see airport list